Flora, IL

05:18 PM CDT am 01. Oktober 2014 (GMT -0500)
Flora Municipal | Change Station
CLOSE
Current Station
Flughafen
Location: Flora,
Höhe: 472 ft
Wetterstationen in der Umgebung

Höhe 472 ft 38.67 °N, 88.45 °W | Updated 23 minutes ago

Heiter
Heiter
84 °F
gefühlte 83 °F
N
9
Wind Wechselnd Wind aus Süd

Heute
Max. -- | schwach -- °F
--% Regenrisiko
Gestern
Max. -- | schwach -- °F
Precip. -- inch
6:49 AM 6:36 PM
Erstes Viertel, 51% visible
Druck 29.88 inch
Sichtweite 10.0 Meilen
Wolken Heiter
Hitzeindex 83 °F
Taupunkt 56 °F
Feuchtigkeit 39%
Regen 0.00 inch
Schneehöhe Nicht verfügbar..
UV 1 von 12
Pollen 4.60 von 12
Luftqualität Nicht verfügbar..
Flu Activity Nicht verfügbar..
METAR KFOA 012155Z AUTO 17008KT 10SM CLR 29/14 A2988 RMK AO2 T02880135

More Conditions Fewer Conditions

Druck 29.88 inch
Sichtweite 10.0 Meilen
Wolken Heiter
Hitzeindex 83 °F
Taupunkt 56 °F
Feuchtigkeit 39%
Regen 0.00 inch
Schneehöhe Nicht verfügbar..
UV 1 von 12
Pollen 4.60 von 12
Luftqualität Nicht verfügbar..
Flu Activity Nicht verfügbar..
METAR KFOA 012155Z AUTO 17008KT 10SM CLR 29/14 A2988 RMK AO2 T02880135

More Conditions Fewer Conditions

10-Day Weather Forecast

Almanac

Astronomie

Oct. 01, 2014 Aufgang Untergang
Genaue Zeit 06:49 CDT 18:36 CDT
Bürgerliche Dämmerung 06:23 CDT 19:03 CDT
Nautische Dämmerung 05:52 CDT 19:33 CDT
Astronomische Dämmerung 05:21 CDT 20:04 CDT
Mond 13:47 CDT kein Monduntergang
Länge des sichtbaren Lichts 12h 39m
Tageslänge
11h 46m
Tomorrow will be 2m 28s shorter.
Erstes Viertel, 51% of the Moon is Illuminated
Heute
Erstes Viertel
Okt 8
Vollmond
Okt 15
Letztes Viertel
Okt 23
Neu
Okt 30
Erstes Viertel

Heutige Rekorde

State Highs State Lows

Community

WunderPhotos

Upload Photos

1,758,058 Fotos hochgeladen!

WunderBlogs® & News

By Dr. Jeff Masters
Director of Meteorology, Weather Underground
By Kari Strenfel
Meteorologist, Weather Underground
By Christopher C. Burt
Weather Historian, Weather Underground
October 1, 2014
October 1, 2014
October 1, 2014

Nearby

Schneehöhe

Station Depth Höhe
Kein Neuschnee gemeldet.

Erdbebenaktivität

Stadt Distance Mag. Time & Date
No recent earthquake activity has been reported nearby.
Minimum magnitude displayed is 2.5.

küstennahe Wassertemperaturen

Ort Temperatur
Kein Stationsbericht

Wetterstationen in der Umgebung